CheckWX is a tool to help pilots better visualize weather data.  It is not intended as a substitute for an official pre-flight weather briefing.

10:19:46 UTC

PABI TAF
Allen AAF Airport
Delta Junction Ft Greely, Alaska, USA
TAF PABI 260600Z 2606/2712 27006KT 9999 SCT070 BKN100 621003 QNH3001INS TEMPO 2621/2703 34010G15KT TX24/2702Z TN12/2613Z

Jun-26@
06:00 UTC

Jun-26 @ 06:00 UTC

Jun-27@
12:00 UTC

Jun-27 @ 12:00 UTC

TAF PABI 260600Z 2606/2712 27006KT 9999 SCT070 BKN100 621003 QNH3001INS
Wind
  • 270° at 6 KTS
Cloud Levels
  • Scattered at 7,000' AGL
  • Broken at 10,000' AGL
Icing
Light icing in cloud expected at 10,000' AGL extending to 13,000' AGL

Jun-26@
21:00 UTC

Jun-26 @ 21:00 UTC

Jun-27@
03:00 UTC

Jun-27 @ 03:00 UTC

TEMPO 2621/2703 34010G15KT TX24/2702Z TN12/2613Z

Temporary

Temporary Changes expected for less than half the time period

Wind
  • 340° at 10 KTS
  • {Gusting to 15 KTS